createdAt,value
2023-03-23T15:58:35.574Z,4.50
2023-03-23T16:01:06.105Z,3.38
2023-03-23T16:03:58.946Z,4.70
2023-03-23T16:06:31.396Z,3.15
2023-03-23T16:08:59.232Z,4.40
2023-03-23T16:11:31.183Z,3.42
2023-03-23T16:13:59.153Z,4.50
2023-03-23T16:16:34.431Z,3.80
2023-03-23T16:19:02.145Z,3.80
2023-03-23T16:21:29.698Z,3.72
2023-03-23T16:23:57.424Z,3.90
2023-03-23T16:26:25.286Z,3.78
2023-03-23T16:28:57.400Z,3.28
2023-03-23T16:31:30.238Z,4.35
2023-03-23T16:33:57.939Z,4.22
2023-03-23T16:36:25.434Z,3.30
2023-03-23T16:38:54.717Z,4.32
2023-03-23T16:41:22.327Z,3.40
2023-03-23T16:43:49.659Z,3.58
2023-03-23T16:46:17.112Z,3.47
2023-03-23T16:48:44.564Z,3.65
2023-03-23T16:51:12.073Z,3.38
2023-03-23T16:53:39.405Z,2.70
2023-03-23T16:56:06.953Z,3.83
2023-03-23T16:58:34.350Z,3.20
2023-03-23T17:01:02.677Z,4.47
2023-03-23T17:03:30.595Z,4.55
2023-03-23T17:06:00.746Z,2.72
2023-03-23T17:08:28.717Z,3.30
2023-03-23T17:10:56.242Z,3.95
2023-03-23T17:13:25.688Z,3.30
2023-03-23T17:15:54.971Z,3.13
2023-03-23T17:18:24.003Z,3.10
2023-03-23T17:20:54.264Z,2.40
2023-03-23T17:23:22.385Z,2.40
2023-03-23T17:25:50.432Z,2.90
2023-03-23T17:28:19.595Z,2.78
2023-03-23T17:30:48.506Z,1.80
2023-03-23T17:33:15.997Z,1.83
2023-03-23T17:35:45.549Z,1.88
2023-03-23T17:38:13.097Z,2.45
2023-03-23T17:40:40.433Z,1.75
2023-03-23T17:43:07.961Z,2.25
2023-03-23T17:45:36.524Z,1.95
2023-03-23T17:48:07.771Z,1.73
2023-03-23T17:50:36.181Z,1.48
2023-03-23T17:53:03.582Z,1.85
2023-03-23T17:55:31.142Z,2.35
2023-03-23T17:57:58.544Z,2.13
2023-03-23T18:00:26.010Z,2.22
2023-03-23T18:02:53.525Z,2.00
2023-03-23T18:05:20.930Z,2.25
2023-03-23T18:07:48.375Z,3.03
2023-03-23T18:10:16.078Z,2.28
2023-03-23T18:12:43.513Z,2.25
2023-03-23T18:15:11.734Z,3.95
2023-03-23T18:17:39.476Z,2.78
2023-03-23T18:20:08.749Z,2.63
2023-03-23T18:22:36.202Z,3.70
2023-03-23T18:25:05.182Z,3.00
2023-03-23T18:27:33.241Z,3.05
2023-03-23T18:30:00.758Z,3.42
2023-03-23T18:32:28.393Z,3.60
2023-03-23T18:34:56.056Z,3.65
2023-03-23T18:37:23.637Z,3.13
2023-03-23T18:39:51.018Z,2.67
2023-03-23T18:42:18.420Z,4.30
2023-03-23T18:44:45.866Z,3.47
2023-03-23T18:47:13.528Z,3.00
2023-03-23T18:49:41.050Z,3.50
2023-03-23T18:52:08.395Z,2.63
2023-03-23T18:54:38.257Z,3.15
2023-03-23T18:57:05.705Z,3.05
2023-03-23T18:59:34.595Z,2.70
2023-03-23T19:02:02.757Z,2.63
2023-03-23T19:04:33.884Z,4.10
2023-03-23T19:09:34.759Z,3.50
2023-03-23T19:12:02.136Z,2.70
2023-03-23T19:14:29.431Z,1.98
2023-03-23T19:16:56.734Z,2.00
2023-03-23T19:19:25.080Z,2.58
2023-03-23T19:21:53.448Z,2.55
2023-03-23T19:24:21.583Z,2.05
2023-03-23T19:26:49.188Z,2.22
2023-03-23T19:29:26.723Z,2.08
2023-03-23T19:31:55.846Z,5.28
2023-03-23T19:34:24.683Z,2.70
2023-03-23T19:36:59.258Z,2.20
2023-03-23T19:39:35.388Z,3.00
2023-03-23T19:42:06.138Z,2.97
2023-03-23T19:47:02.195Z,3.22
2023-03-23T19:49:30.222Z,1.88
2023-03-23T19:52:09.035Z,2.42
2023-03-23T19:54:39.921Z,1.95
2023-03-23T19:57:08.822Z,1.25
2023-03-23T19:59:37.329Z,2.30
2023-03-23T20:02:05.295Z,1.95
2023-03-23T20:04:32.697Z,2.17
2023-03-23T20:07:00.580Z,2.17
2023-03-23T20:09:28.524Z,2.50
2023-03-23T20:11:56.027Z,2.03
2023-03-23T20:14:23.707Z,1.75
2023-03-23T20:16:52.750Z,2.15
2023-03-23T20:19:21.349Z,2.00
2023-03-23T20:21:48.843Z,2.10
2023-03-23T20:24:16.569Z,2.13
2023-03-23T20:26:44.828Z,2.10
2023-03-23T20:29:12.855Z,1.77
2023-03-23T20:31:41.693Z,2.08
2023-03-23T20:34:12.933Z,2.80
2023-03-23T20:36:45.562Z,2.35
2023-03-23T20:39:16.237Z,2.53
2023-03-23T20:41:43.780Z,2.15
2023-03-23T20:44:16.068Z,1.95
2023-03-23T20:46:48.461Z,2.28
2023-03-23T20:49:17.849Z,1.95
2023-03-23T20:51:46.476Z,2.00
2023-03-23T20:54:15.746Z,2.00
2023-03-23T20:56:44.373Z,2.70
2023-03-23T20:59:12.447Z,2.85
2023-03-23T21:01:40.436Z,2.50
2023-03-23T21:04:14.978Z,2.63
2023-03-23T21:06:44.286Z,2.05
2023-03-23T21:09:15.741Z,2.20
2023-03-23T21:11:43.964Z,2.28
2023-03-23T21:14:12.625Z,2.20
2023-03-23T21:16:41.419Z,2.92
2023-03-23T21:19:09.983Z,2.33
2023-03-23T21:21:55.444Z,2.80
2023-03-23T21:24:28.644Z,2.30
2023-03-23T21:26:58.586Z,2.38
2023-03-23T21:29:27.500Z,1.95
2023-03-23T21:32:07.654Z,3.03
2023-03-23T21:34:36.822Z,2.10
2023-03-23T21:37:04.466Z,2.28
2023-03-23T21:39:32.261Z,2.03
2023-03-23T21:41:59.835Z,2.90
2023-03-23T21:44:27.218Z,2.78
2023-03-23T21:46:54.756Z,2.60
2023-03-23T21:49:22.304Z,2.17
2023-03-23T21:51:52.210Z,2.45
2023-03-23T21:54:21.491Z,1.92
2023-03-23T21:56:48.990Z,3.22
2023-03-23T21:59:16.688Z,2.55
2023-03-23T22:01:44.212Z,2.45
2023-03-23T22:04:11.868Z,2.50
2023-03-23T22:06:39.247Z,2.22
2023-03-23T22:09:07.252Z,1.90
2023-03-23T22:11:34.805Z,2.50
2023-03-23T22:14:03.207Z,2.42
2023-03-23T22:16:31.569Z,1.98
2023-03-23T22:19:06.728Z,2.25
2023-03-23T22:21:34.184Z,2.92
2023-03-23T22:24:01.981Z,1.58
2023-03-23T22:26:30.676Z,1.75
2023-03-23T22:28:59.405Z,3.95
2023-03-23T22:31:30.429Z,2.05
2023-03-23T22:36:27.449Z,2.88
2023-03-23T22:38:56.401Z,1.52
2023-03-23T22:41:27.002Z,1.95
2023-03-23T22:43:54.953Z,1.83
2023-03-23T22:46:22.755Z,2.22
2023-03-23T22:48:50.184Z,1.70
2023-03-23T22:51:18.700Z,1.67
2023-03-23T22:53:46.527Z,1.88
2023-03-23T22:56:14.270Z,1.73
2023-03-23T22:58:41.646Z,1.90
2023-03-23T23:01:13.484Z,2.42
2023-03-23T23:03:41.203Z,1.90
2023-03-23T23:06:11.390Z,1.65
2023-03-23T23:08:39.465Z,3.00
2023-03-23T23:11:07.432Z,1.67
2023-03-23T23:13:34.790Z,1.67
2023-03-23T23:16:02.726Z,1.38
2023-03-23T23:18:31.281Z,1.88
2023-03-23T23:21:00.787Z,1.52
2023-03-23T23:23:28.685Z,1.50
2023-03-23T23:25:57.214Z,1.80
2023-03-23T23:28:25.042Z,1.67
2023-03-23T23:30:52.978Z,2.10
2023-03-23T23:33:20.744Z,1.70
2023-03-23T23:35:48.791Z,1.90
2023-03-23T23:38:17.016Z,2.08
2023-03-23T23:40:46.301Z,1.83
2023-03-23T23:43:16.190Z,1.80
2023-03-23T23:45:44.328Z,1.90
2023-03-23T23:48:13.063Z,1.70
2023-03-23T23:50:40.557Z,1.50
2023-03-23T23:53:09.893Z,2.17
2023-03-23T23:55:39.977Z,1.95
2023-03-23T23:58:07.386Z,1.77
